sensor_id;sensor_type;location;lat;lon;timestamp;pressure;altitude;pressure_sealevel;temperature;humidity
66021;BME280;52789;59.980;30.346;2023-03-14T00:02:27;98932.56;;;-2.21;100.00
66021;BME280;52789;59.980;30.346;2023-03-14T00:04:55;98938.22;;;-2.15;100.00
66021;BME280;52789;59.980;30.346;2023-03-14T00:07:21;98925.44;;;-2.19;100.00
66021;BME280;52789;59.980;30.346;2023-03-14T00:09:46;98917.63;;;-2.19;100.00
66021;BME280;52789;59.980;30.346;2023-03-14T00:12:11;98903.63;;;-2.17;100.00
66021;BME280;52789;59.980;30.346;2023-03-14T00:14:39;98894.84;;;-2.16;100.00
66021;BME280;52789;59.980;30.346;2023-03-14T00:17:04;98883.31;;;-2.14;100.00
66021;BME280;52789;59.980;30.346;2023-03-14T00:19:30;98886.38;;;-2.09;100.00
66021;BME280;52789;59.980;30.346;2023-03-14T00:21:56;98880.06;;;-2.06;100.00
66021;BME280;52789;59.980;30.346;2023-03-14T00:24:22;98865.94;;;-2.04;100.00
66021;BME280;52789;59.980;30.346;2023-03-14T00:26:47;98882.41;;;-2.03;100.00
66021;BME280;52789;59.980;30.346;2023-03-14T00:29:15;98863.09;;;-2.01;100.00
66021;BME280;52789;59.980;30.346;2023-03-14T00:31:40;98840.31;;;-1.99;100.00
66021;BME280;52789;59.980;30.346;2023-03-14T00:34:05;98844.72;;;-1.99;100.00
66021;BME280;52789;59.980;30.346;2023-03-14T00:36:31;98831.66;;;-1.99;100.00
66021;BME280;52789;59.980;30.346;2023-03-14T00:38:56;98827.84;;;-1.95;100.00
66021;BME280;52789;59.980;30.346;2023-03-14T00:41:24;98812.59;;;-1.90;100.00
66021;BME280;52789;59.980;30.346;2023-03-14T00:43:49;98800.25;;;-1.88;100.00
66021;BME280;52789;59.980;30.346;2023-03-14T00:46:15;98801.63;;;-1.84;100.00
66021;BME280;52789;59.980;30.346;2023-03-14T00:48:40;98790.94;;;-1.81;100.00
66021;BME280;52789;59.980;30.346;2023-03-14T00:51:07;98765.94;;;-1.83;100.00
66021;BME280;52789;59.980;30.346;2023-03-14T00:53:37;98789.56;;;-1.85;100.00
66021;BME280;52789;59.980;30.346;2023-03-14T00:56:03;98761.81;;;-1.86;100.00
66021;BME280;52789;59.980;30.346;2023-03-14T00:58:29;98781.59;;;-1.83;100.00
66021;BME280;52789;59.980;30.346;2023-03-14T01:00:54;98754.69;;;-1.84;100.00
66021;BME280;52789;59.980;30.346;2023-03-14T01:03:20;98752.47;;;-1.79;100.00
66021;BME280;52789;59.980;30.346;2023-03-14T01:05:46;98732.03;;;-1.74;100.00
66021;BME280;52789;59.980;30.346;2023-03-14T01:08:13;98747.69;;;-1.74;100.00
66021;BME280;52789;59.980;30.346;2023-03-14T01:10:39;98710.47;;;-1.76;100.00
66021;BME280;52789;59.980;30.346;2023-03-14T01:13:05;98681.91;;;-1.77;100.00
66021;BME280;52789;59.980;30.346;2023-03-14T01:15:33;98718.84;;;-1.82;100.00
66021;BME280;52789;59.980;30.346;2023-03-14T01:17:59;98694.25;;;-1.79;100.00
66021;BME280;52789;59.980;30.346;2023-03-14T01:20:27;98682.72;;;-1.77;100.00
66021;BME280;52789;59.980;30.346;2023-03-14T01:22:56;98683.69;;;-1.78;100.00
66021;BME280;52789;59.980;30.346;2023-03-14T01:25:21;98677.50;;;-1.77;100.00
66021;BME280;52789;59.980;30.346;2023-03-14T01:27:47;98664.47;;;-1.77;100.00
66021;BME280;52789;59.980;30.346;2023-03-14T01:30:12;98657.06;;;-1.72;100.00
66021;BME280;52789;59.980;30.346;2023-03-14T01:32:37;98656.09;;;-1.71;100.00
66021;BME280;52789;59.980;30.346;2023-03-14T01:35:03;98640.84;;;-1.66;100.00
66021;BME280;52789;59.980;30.346;2023-03-14T01:37:28;98646.06;;;-1.66;100.00
66021;BME280;52789;59.980;30.346;2023-03-14T01:39:54;98637.97;;;-1.63;100.00
66021;BME280;52789;59.980;30.346;2023-03-14T01:42:19;98623.81;;;-1.60;100.00
66021;BME280;52789;59.980;30.346;2023-03-14T01:44:48;98626.44;;;-1.60;100.00
66021;BME280;52789;59.980;30.346;2023-03-14T01:47:14;98621.75;;;-1.57;100.00
66021;BME280;52789;59.980;30.346;2023-03-14T01:49:39;98596.34;;;-1.54;100.00
66021;BME280;52789;59.980;30.346;2023-03-14T01:52:12;98589.59;;;-1.47;100.00
66021;BME280;52789;59.980;30.346;2023-03-14T01:54:42;98594.94;;;-1.49;100.00
66021;BME280;52789;59.980;30.346;2023-03-14T01:57:10;98587.41;;;-1.52;100.00
66021;BME280;52789;59.980;30.346;2023-03-14T01:59:36;98581.75;;;-1.47;100.00
66021;BME280;52789;59.980;30.346;2023-03-14T02:02:03;98577.22;;;-1.45;100.00
66021;BME280;52789;59.980;30.346;2023-03-14T02:04:31;98577.94;;;-1.43;100.00
66021;BME280;52789;59.980;30.346;2023-03-14T02:09:42;98542.06;;;-1.41;100.00
66021;BME280;52789;59.980;30.346;2023-03-14T02:12:08;98550.44;;;-1.38;100.00
66021;BME280;52789;59.980;30.346;2023-03-14T02:14:35;98535.44;;;-1.36;100.00
66021;BME280;52789;59.980;30.346;2023-03-14T02:17:01;98530.47;;;-1.29;100.00
66021;BME280;52789;59.980;30.346;2023-03-14T02:22:09;98521.78;;;-1.20;100.00
66021;BME280;52789;59.980;30.346;2023-03-14T02:24:40;98510.06;;;-1.16;100.00
66021;BME280;52789;59.980;30.346;2023-03-14T02:27:13;98501.69;;;-1.10;100.00
66021;BME280;52789;59.980;30.346;2023-03-14T02:29:40;98495.50;;;-1.09;100.00
66021;BME280;52789;59.980;30.346;2023-03-14T02:32:08;98488.34;;;-1.07;100.00
66021;BME280;52789;59.980;30.346;2023-03-14T02:34:34;98496.69;;;-1.03;100.00
66021;BME280;52789;59.980;30.346;2023-03-14T02:36:59;98476.31;;;-1.00;100.00
66021;BME280;52789;59.980;30.346;2023-03-14T02:39:31;98488.28;;;-0.97;100.00
66021;BME280;52789;59.980;30.346;2023-03-14T02:41:58;98473.28;;;-0.95;100.00
66021;BME280;52789;59.980;30.346;2023-03-14T02:44:23;98492.09;;;-0.91;100.00
66021;BME280;52789;59.980;30.346;2023-03-14T02:46:48;98496.88;;;-0.87;100.00
66021;BME280;52789;59.980;30.346;2023-03-14T02:49:14;98481.09;;;-0.85;100.00
66021;BME280;52789;59.980;30.346;2023-03-14T02:51:39;98475.56;;;-0.82;100.00
66021;BME280;52789;59.980;30.346;2023-03-14T02:54:06;98476.25;;;-0.80;100.00
66021;BME280;52789;59.980;30.346;2023-03-14T02:56:31;98469.75;;;-0.76;100.00
66021;BME280;52789;59.980;30.346;2023-03-14T02:58:57;98476.63;;;-0.75;100.00
66021;BME280;52789;59.980;30.346;2023-03-14T03:01:22;98468.47;;;-0.72;100.00
66021;BME280;52789;59.980;30.346;2023-03-14T03:03:48;98473.41;;;-0.69;100.00
66021;BME280;52789;59.980;30.346;2023-03-14T03:06:13;98472.13;;;-0.65;100.00
66021;BME280;52789;59.980;30.346;2023-03-14T03:08:38;98459.44;;;-0.60;100.00
66021;BME280;52789;59.980;30.346;2023-03-14T03:11:04;98458.34;;;-0.57;100.00
66021;BME280;52789;59.980;30.346;2023-03-14T03:13:29;98458.19;;;-0.56;100.00
66021;BME280;52789;59.980;30.346;2023-03-14T03:15:55;98432.72;;;-0.54;100.00
66021;BME280;52789;59.980;30.346;2023-03-14T03:18:20;98447.16;;;-0.50;100.00
66021;BME280;52789;59.980;30.346;2023-03-14T03:20:45;98434.59;;;-0.46;100.00
66021;BME280;52789;59.980;30.346;2023-03-14T03:23:11;98421.22;;;-0.43;100.00
66021;BME280;52789;59.980;30.346;2023-03-14T03:25:37;98440.19;;;-0.41;100.00
66021;BME280;52789;59.980;30.346;2023-03-14T03:28:02;98415.06;;;-0.34;100.00
66021;BME280;52789;59.980;30.346;2023-03-14T03:30:32;98421.78;;;-0.32;100.00
66021;BME280;52789;59.980;30.346;2023-03-14T03:32:58;98411.06;;;-0.28;100.00
66021;BME280;52789;59.980;30.346;2023-03-14T03:35:23;98402.59;;;-0.22;100.00
66021;BME280;52789;59.980;30.346;2023-03-14T03:37:48;98412.09;;;-0.21;100.00
66021;BME280;52789;59.980;30.346;2023-03-14T03:40:14;98404.91;;;-0.19;100.00
66021;BME280;52789;59.980;30.346;2023-03-14T03:42:39;98397.41;;;-0.14;100.00
66021;BME280;52789;59.980;30.346;2023-03-14T03:45:05;98399.88;;;-0.13;100.00
66021;BME280;52789;59.980;30.346;2023-03-14T03:47:30;98412.50;;;-0.08;100.00
66021;BME280;52789;59.980;30.346;2023-03-14T03:49:56;98401.41;;;-0.02;100.00
66021;BME280;52789;59.980;30.346;2023-03-14T03:52:21;98411.28;;;0.04;100.00
66021;BME280;52789;59.980;30.346;2023-03-14T03:54:47;98405.44;;;0.10;100.00
66021;BME280;52789;59.980;30.346;2023-03-14T03:57:12;98416.94;;;0.17;100.00
66021;BME280;52789;59.980;30.346;2023-03-14T03:59:37;98404.50;;;0.19;100.00
66021;BME280;52789;59.980;30.346;2023-03-14T04:02:05;98393.06;;;0.20;100.00
66021;BME280;52789;59.980;30.346;2023-03-14T04:04:30;98392.44;;;0.26;100.00
66021;BME280;52789;59.980;30.346;2023-03-14T04:06:55;98394.78;;;0.29;100.00
66021;BME280;52789;59.980;30.346;2023-03-14T04:09:21;98393.84;;;0.39;100.00
66021;BME280;52789;59.980;30.346;2023-03-14T04:11:46;98394.84;;;0.46;100.00
66021;BME280;52789;59.980;30.346;2023-03-14T04:14:11;98397.81;;;0.51;100.00
66021;BME280;52789;59.980;30.346;2023-03-14T04:16:37;98391.94;;;0.57;100.00
66021;BME280;52789;59.980;30.346;2023-03-14T04:19:02;98361.84;;;0.61;100.00
66021;BME280;52789;59.980;30.346;2023-03-14T04:21:28;98370.72;;;0.68;100.00
66021;BME280;52789;59.980;30.346;2023-03-14T04:23:53;98382.19;;;0.75;100.00
66021;BME280;52789;59.980;30.346;2023-03-14T04:26:19;98370.09;;;0.82;100.00
66021;BME280;52789;59.980;30.346;2023-03-14T04:28:44;98351.16;;;0.88;100.00
66021;BME280;52789;59.980;30.346;2023-03-14T04:31:10;98364.25;;;0.88;100.00
66021;BME280;52789;59.980;30.346;2023-03-14T04:33:35;98355.41;;;0.89;100.00
66021;BME280;52789;59.980;30.346;2023-03-14T04:36:02;98348.84;;;0.93;100.00
66021;BME280;52789;59.980;30.346;2023-03-14T04:38:28;98354.75;;;0.96;100.00
66021;BME280;52789;59.980;30.346;2023-03-14T04:40:53;98349.50;;;0.96;100.00
66021;BME280;52789;59.980;30.346;2023-03-14T04:43:18;98349.50;;;0.96;100.00
66021;BME280;52789;59.980;30.346;2023-03-14T04:45:44;98359.19;;;0.95;100.00
66021;BME280;52789;59.980;30.346;2023-03-14T04:48:09;98347.88;;;0.95;100.00
66021;BME280;52789;59.980;30.346;2023-03-14T04:50:34;98366.88;;;0.97;100.00
66021;BME280;52789;59.980;30.346;2023-03-14T04:53:00;98357.72;;;1.01;100.00
66021;BME280;52789;59.980;30.346;2023-03-14T04:55:25;98348.53;;;1.05;100.00
66021;BME280;52789;59.980;30.346;2023-03-14T04:57:50;98342.31;;;1.06;100.00
66021;BME280;52789;59.980;30.346;2023-03-14T05:00:16;98332.81;;;1.05;100.00
66021;BME280;52789;59.980;30.346;2023-03-14T05:02:43;98337.72;;;1.08;100.00
66021;BME280;52789;59.980;30.346;2023-03-14T05:05:09;98333.31;;;1.08;100.00
66021;BME280;52789;59.980;30.346;2023-03-14T05:07:35;98324.94;;;1.13;100.00
66021;BME280;52789;59.980;30.346;2023-03-14T05:10:00;98333.47;;;1.15;100.00
66021;BME280;52789;59.980;30.346;2023-03-14T05:12:25;98334.16;;;1.17;100.00
66021;BME280;52789;59.980;30.346;2023-03-14T05:14:51;98323.00;;;1.15;100.00
66021;BME280;52789;59.980;30.346;2023-03-14T05:17:16;98328.41;;;1.13;100.00
66021;BME280;52789;59.980;30.346;2023-03-14T05:19:43;98328.56;;;1.12;100.00
66021;BME280;52789;59.980;30.346;2023-03-14T05:22:08;98323.31;;;1.12;100.00
66021;BME280;52789;59.980;30.346;2023-03-14T05:24:33;98326.63;;;1.22;100.00
66021;BME280;52789;59.980;30.346;2023-03-14T05:26:58;98332.53;;;1.24;100.00
66021;BME280;52789;59.980;30.346;2023-03-14T05:29:24;98321.53;;;1.37;100.00
66021;BME280;52789;59.980;30.346;2023-03-14T05:31:50;98324.31;;;1.35;100.00
66021;BME280;52789;59.980;30.346;2023-03-14T05:34:15;98315.78;;;1.41;100.00
66021;BME280;52789;59.980;30.346;2023-03-14T05:36:41;98320.25;;;1.49;100.00
66021;BME280;52789;59.980;30.346;2023-03-14T05:39:06;98316.31;;;1.53;100.00
66021;BME280;52789;59.980;30.346;2023-03-14T05:41:31;98308.09;;;1.56;100.00
66021;BME280;52789;59.980;30.346;2023-03-14T05:43:57;98314.47;;;1.62;100.00
66021;BME280;52789;59.980;30.346;2023-03-14T05:46:22;98307.28;;;1.64;100.00
66021;BME280;52789;59.980;30.346;2023-03-14T05:48:47;98317.09;;;1.70;100.00
66021;BME280;52789;59.980;30.346;2023-03-14T05:51:13;98318.44;;;1.74;100.00
66021;BME280;52789;59.980;30.346;2023-03-14T05:53:38;98314.16;;;1.81;100.00
66021;BME280;52789;59.980;30.346;2023-03-14T05:56:03;98316.44;;;1.84;100.00
66021;BME280;52789;59.980;30.346;2023-03-14T05:58:29;98318.56;;;1.89;100.00
66021;BME280;52789;59.980;30.346;2023-03-14T06:00:54;98319.69;;;1.94;100.00
66021;BME280;52789;59.980;30.346;2023-03-14T06:03:19;98313.75;;;2.00;100.00
66021;BME280;52789;59.980;30.346;2023-03-14T06:05:45;98330.84;;;2.04;100.00
66021;BME280;52789;59.980;30.346;2023-03-14T06:08:10;98320.00;;;2.07;100.00
66021;BME280;52789;59.980;30.346;2023-03-14T06:10:36;98318.66;;;2.11;100.00
66021;BME280;52789;59.980;30.346;2023-03-14T06:13:01;98312.44;;;2.12;100.00
66021;BME280;52789;59.980;30.346;2023-03-14T06:15:27;98315.53;;;2.16;100.00
66021;BME280;52789;59.980;30.346;2023-03-14T06:17:55;98311.75;;;2.18;100.00
66021;BME280;52789;59.980;30.346;2023-03-14T06:20:20;98308.13;;;2.20;100.00
66021;BME280;52789;59.980;30.346;2023-03-14T06:22:46;98303.19;;;2.25;100.00
66021;BME280;52789;59.980;30.346;2023-03-14T06:25:11;98315.97;;;2.28;100.00
66021;BME280;52789;59.980;30.346;2023-03-14T06:27:37;98312.88;;;2.32;100.00
66021;BME280;52789;59.980;30.346;2023-03-14T06:30:03;98305.47;;;2.36;100.00
66021;BME280;52789;59.980;30.346;2023-03-14T06:32:29;98303.13;;;2.41;100.00
66021;BME280;52789;59.980;30.346;2023-03-14T06:34:54;98301.16;;;2.43;100.00
66021;BME280;52789;59.980;30.346;2023-03-14T06:37:19;98304.25;;;2.46;100.00
66021;BME280;52789;59.980;30.346;2023-03-14T06:39:45;98309.81;;;2.52;100.00
66021;BME280;52789;59.980;30.346;2023-03-14T06:42:10;98315.38;;;2.57;100.00
66021;BME280;52789;59.980;30.346;2023-03-14T06:44:36;98308.94;;;2.59;100.00
66021;BME280;52789;59.980;30.346;2023-03-14T06:47:01;98307.31;;;2.58;100.00
66021;BME280;52789;59.980;30.346;2023-03-14T06:49:26;98313.06;;;2.62;100.00
66021;BME280;52789;59.980;30.346;2023-03-14T06:51:51;98328.50;;;2.65;100.00
66021;BME280;52789;59.980;30.346;2023-03-14T06:54:17;98333.91;;;2.63;100.00
66021;BME280;52789;59.980;30.346;2023-03-14T06:56:42;98323.72;;;2.68;100.00
66021;BME280;52789;59.980;30.346;2023-03-14T06:59:08;98315.31;;;2.73;100.00
66021;BME280;52789;59.980;30.346;2023-03-14T07:01:33;98324.31;;;2.78;100.00
66021;BME280;52789;59.980;30.346;2023-03-14T07:04:00;98341.66;;;2.88;100.00
66021;BME280;52789;59.980;30.346;2023-03-14T07:06:25;98336.56;;;2.94;100.00
66021;BME280;52789;59.980;30.346;2023-03-14T07:08:51;98348.53;;;2.97;100.00
66021;BME280;52789;59.980;30.346;2023-03-14T07:11:16;98355.06;;;3.01;100.00
66021;BME280;52789;59.980;30.346;2023-03-14T07:13:42;98352.28;;;3.02;100.00
66021;BME280;52789;59.980;30.346;2023-03-14T07:16:07;98345.84;;;3.05;100.00
66021;BME280;52789;59.980;30.346;2023-03-14T07:18:33;98352.03;;;3.12;100.00
66021;BME280;52789;59.980;30.346;2023-03-14T07:20:59;98347.91;;;3.18;100.00
66021;BME280;52789;59.980;30.346;2023-03-14T07:23:27;98353.31;;;3.24;100.00
66021;BME280;52789;59.980;30.346;2023-03-14T07:25:52;98361.84;;;3.26;100.00
66021;BME280;52789;59.980;30.346;2023-03-14T07:28:18;98361.19;;;3.24;100.00
66021;BME280;52789;59.980;30.346;2023-03-14T07:30:50;98365.41;;;3.33;100.00
66021;BME280;52789;59.980;30.346;2023-03-14T07:33:15;98370.94;;;3.38;100.00
66021;BME280;52789;59.980;30.346;2023-03-14T07:35:41;98365.03;;;3.36;100.00
66021;BME280;52789;59.980;30.346;2023-03-14T07:38:06;98371.94;;;3.37;100.00
66021;BME280;52789;59.980;30.346;2023-03-14T07:40:32;98376.03;;;3.40;100.00
66021;BME280;52789;59.980;30.346;2023-03-14T07:42:57;98382.09;;;3.40;100.00
66021;BME280;52789;59.980;30.346;2023-03-14T07:45:22;98377.84;;;3.39;100.00
66021;BME280;52789;59.980;30.346;2023-03-14T07:47:48;98373.69;;;3.45;100.00
66021;BME280;52789;59.980;30.346;2023-03-14T07:50:13;98368.91;;;3.49;100.00
66021;BME280;52789;59.980;30.346;2023-03-14T07:52:39;98381.09;;;3.50;100.00
66021;BME280;52789;59.980;30.346;2023-03-14T07:55:04;98385.00;;;3.54;100.00
66021;BME280;52789;59.980;30.346;2023-03-14T07:57:34;98367.84;;;3.58;100.00
66021;BME280;52789;59.980;30.346;2023-03-14T08:00:02;98379.19;;;3.58;100.00
66021;BME280;52789;59.980;30.346;2023-03-14T08:02:30;98384.28;;;3.60;100.00
66021;BME280;52789;59.980;30.346;2023-03-14T08:04:55;98389.00;;;3.64;100.00
66021;BME280;52789;59.980;30.346;2023-03-14T08:07:21;98393.38;;;3.72;100.00
66021;BME280;52789;59.980;30.346;2023-03-14T08:09:46;98383.19;;;3.77;100.00
66021;BME280;52789;59.980;30.346;2023-03-14T08:12:14;98381.81;;;3.81;100.00
66021;BME280;52789;59.980;30.346;2023-03-14T08:14:41;98388.19;;;3.87;100.00
66021;BME280;52789;59.980;30.346;2023-03-14T08:17:06;98396.53;;;3.90;100.00
66021;BME280;52789;59.980;30.346;2023-03-14T08:19:33;98394.00;;;3.97;100.00
66021;BME280;52789;59.980;30.346;2023-03-14T08:21:59;98393.47;;;4.01;100.00
66021;BME280;52789;59.980;30.346;2023-03-14T08:24:24;98387.16;;;4.11;100.00
66021;BME280;52789;59.980;30.346;2023-03-14T08:26:51;98388.06;;;4.18;100.00
66021;BME280;52789;59.980;30.346;2023-03-14T08:29:16;98394.25;;;4.25;100.00
66021;BME280;52789;59.980;30.346;2023-03-14T08:31:42;98386.44;;;4.31;100.00
66021;BME280;52789;59.980;30.346;2023-03-14T08:34:08;98384.63;;;4.32;100.00
66021;BME280;52789;59.980;30.346;2023-03-14T08:36:33;98393.81;;;4.36;100.00
66021;BME280;52789;59.980;30.346;2023-03-14T08:39:00;98391.81;;;4.38;100.00
66021;BME280;52789;59.980;30.346;2023-03-14T08:41:27;98406.28;;;4.42;100.00
66021;BME280;52789;59.980;30.346;2023-03-14T08:43:52;98402.63;;;4.43;100.00
66021;BME280;52789;59.980;30.346;2023-03-14T08:46:19;98408.19;;;4.48;100.00
66021;BME280;52789;59.980;30.346;2023-03-14T08:48:44;98413.53;;;4.55;100.00
66021;BME280;52789;59.980;30.346;2023-03-14T08:51:11;98430.09;;;4.63;100.00
66021;BME280;52789;59.980;30.346;2023-03-14T08:53:38;98414.25;;;4.78;100.00
66021;BME280;52789;59.980;30.346;2023-03-14T08:56:04;98401.72;;;4.95;100.00
66021;BME280;52789;59.980;30.346;2023-03-14T08:58:35;98413.72;;;4.97;100.00
66021;BME280;52789;59.980;30.346;2023-03-14T09:01:02;98428.91;;;4.95;100.00
66021;BME280;52789;59.980;30.346;2023-03-14T09:03:29;98422.19;;;4.93;100.00
66021;BME280;52789;59.980;30.346;2023-03-14T09:05:54;98433.38;;;4.95;100.00
66021;BME280;52789;59.980;30.346;2023-03-14T09:08:20;98433.19;;;4.96;100.00
66021;BME280;52789;59.980;30.346;2023-03-14T09:10:47;98436.91;;;5.02;100.00
66021;BME280;52789;59.980;30.346;2023-03-14T09:13:14;98434.91;;;5.04;100.00
66021;BME280;52789;59.980;30.346;2023-03-14T09:15:39;98446.25;;;5.05;100.00
66021;BME280;52789;59.980;30.346;2023-03-14T09:18:07;98447.72;;;5.07;100.00
66021;BME280;52789;59.980;30.346;2023-03-14T09:20:32;98454.63;;;5.08;100.00
66021;BME280;52789;59.980;30.346;2023-03-14T09:23:04;98445.97;;;5.14;100.00
66021;BME280;52789;59.980;30.346;2023-03-14T09:25:29;98463.63;;;5.28;100.00
66021;BME280;52789;59.980;30.346;2023-03-14T09:27:56;98465.94;;;5.38;100.00
66021;BME280;52789;59.980;30.346;2023-03-14T09:30:22;98458.91;;;5.45;100.00
66021;BME280;52789;59.980;30.346;2023-03-14T09:32:47;98461.28;;;5.55;100.00
66021;BME280;52789;59.980;30.346;2023-03-14T09:35:12;98470.84;;;5.56;100.00
66021;BME280;52789;59.980;30.346;2023-03-14T09:37:38;98465.94;;;5.53;100.00
66021;BME280;52789;59.980;30.346;2023-03-14T09:40:04;98462.28;;;5.54;100.00
66021;BME280;52789;59.980;30.346;2023-03-14T09:42:35;98476.22;;;5.48;100.00
66021;BME280;52789;59.980;30.346;2023-03-14T09:45:04;98478.84;;;5.48;100.00
66021;BME280;52789;59.980;30.346;2023-03-14T09:47:33;98475.56;;;5.46;100.00
66021;BME280;52789;59.980;30.346;2023-03-14T09:50:02;98485.13;;;5.47;100.00
66021;BME280;52789;59.980;30.346;2023-03-14T09:52:32;98488.59;;;5.47;100.00
66021;BME280;52789;59.980;30.346;2023-03-14T09:55:04;98491.03;;;5.49;100.00
66021;BME280;52789;59.980;30.346;2023-03-14T09:57:32;98499.63;;;5.51;100.00
66021;BME280;52789;59.980;30.346;2023-03-14T10:00:32;98495.50;;;5.48;100.00
66021;BME280;52789;59.980;30.346;2023-03-14T10:02:56;98486.63;;;5.49;100.00
66021;BME280;52789;59.980;30.346;2023-03-14T10:05:23;98501.31;;;5.58;100.00
66021;BME280;52789;59.980;30.346;2023-03-14T10:07:49;98507.88;;;5.63;100.00
66021;BME280;52789;59.980;30.346;2023-03-14T10:10:24;98509.94;;;5.67;100.00
66021;BME280;52789;59.980;30.346;2023-03-14T10:12:55;98513.41;;;5.68;100.00
66021;BME280;52789;59.980;30.346;2023-03-14T10:15:30;98511.28;;;5.78;100.00
66021;BME280;52789;59.980;30.346;2023-03-14T10:17:58;98512.53;;;5.97;100.00
66021;BME280;52789;59.980;30.346;2023-03-14T10:20:28;98513.69;;;6.09;100.00
66021;BME280;52789;59.980;30.346;2023-03-14T10:25:31;98506.13;;;6.27;100.00
66021;BME280;52789;59.980;30.346;2023-03-14T10:27:58;98516.38;;;6.37;100.00
66021;BME280;52789;59.980;30.346;2023-03-14T10:31:06;98510.38;;;6.49;100.00
66021;BME280;52789;59.980;30.346;2023-03-14T10:35:44;98508.38;;;6.79;100.00
66021;BME280;52789;59.980;30.346;2023-03-14T10:38:14;98518.28;;;6.71;100.00
66021;BME280;52789;59.980;30.346;2023-03-14T10:40:40;98517.03;;;6.67;100.00
66021;BME280;52789;59.980;30.346;2023-03-14T10:43:11;98520.59;;;6.80;100.00
66021;BME280;52789;59.980;30.346;2023-03-14T10:49:00;98522.69;;;6.64;100.00
66021;BME280;52789;59.980;30.346;2023-03-14T10:51:29;98526.81;;;6.45;100.00
66021;BME280;52789;59.980;30.346;2023-03-14T10:53:56;98528.59;;;6.38;100.00
66021;BME280;52789;59.980;30.346;2023-03-14T10:56:22;98526.31;;;6.35;100.00
66021;BME280;52789;59.980;30.346;2023-03-14T10:58:49;98529.75;;;6.35;100.00
66021;BME280;52789;59.980;30.346;2023-03-14T11:10:33;98536.91;;;6.91;100.00
66021;BME280;52789;59.980;30.346;2023-03-14T11:27:48;98556.88;;;6.93;100.00
66021;BME280;52789;59.980;30.346;2023-03-14T11:30:26;98565.56;;;6.80;100.00
66021;BME280;52789;59.980;30.346;2023-03-14T11:38:18;98566.56;;;6.79;100.00
66021;BME280;52789;59.980;30.346;2023-03-14T11:40:44;98565.91;;;6.71;100.00
66021;BME280;52789;59.980;30.346;2023-03-14T11:43:13;98589.81;;;6.63;100.00
66021;BME280;52789;59.980;30.346;2023-03-14T11:45:41;98586.31;;;6.56;100.00
66021;BME280;52789;59.980;30.346;2023-03-14T11:50:35;98590.97;;;6.53;100.00
66021;BME280;52789;59.980;30.346;2023-03-14T11:53:03;98599.91;;;6.52;100.00
66021;BME280;52789;59.980;30.346;2023-03-14T11:55:35;98602.94;;;6.49;100.00
66021;BME280;52789;59.980;30.346;2023-03-14T12:00:38;98592.59;;;6.55;100.00
66021;BME280;52789;59.980;30.346;2023-03-14T12:05:59;98608.47;;;6.55;100.00
66021;BME280;52789;59.980;30.346;2023-03-14T12:11:12;98609.84;;;6.72;100.00
66021;BME280;52789;59.980;30.346;2023-03-14T12:13:44;98616.00;;;6.79;100.00
66021;BME280;52789;59.980;30.346;2023-03-14T12:16:27;98605.88;;;6.82;100.00
66021;BME280;52789;59.980;30.346;2023-03-14T12:24:27;98607.66;;;7.03;100.00
66021;BME280;52789;59.980;30.346;2023-03-14T12:26:55;98611.19;;;7.10;100.00
66021;BME280;52789;59.980;30.346;2023-03-14T12:29:21;98626.91;;;7.19;100.00
66021;BME280;52789;59.980;30.346;2023-03-14T12:31:47;98614.88;;;7.16;100.00
66021;BME280;52789;59.980;30.346;2023-03-14T12:41:43;98628.66;;;7.33;100.00
66021;BME280;52789;59.980;30.346;2023-03-14T12:49:37;98644.03;;;7.23;100.00
66021;BME280;52789;59.980;30.346;2023-03-14T12:52:10;98646.63;;;7.16;100.00
66021;BME280;52789;59.980;30.346;2023-03-14T12:59:33;98659.34;;;6.99;100.00
66021;BME280;52789;59.980;30.346;2023-03-14T13:02:00;98647.25;;;6.90;100.00
66021;BME280;52789;59.980;30.346;2023-03-14T13:04:28;98659.03;;;6.88;100.00
66021;BME280;52789;59.980;30.346;2023-03-14T13:06:58;98661.22;;;6.84;100.00
66021;BME280;52789;59.980;30.346;2023-03-14T13:12:00;98660.47;;;6.90;100.00
66021;BME280;52789;59.980;30.346;2023-03-14T13:14:29;98658.44;;;6.92;100.00
66021;BME280;52789;59.980;30.346;2023-03-14T13:16:55;98662.19;;;6.98;100.00
66021;BME280;52789;59.980;30.346;2023-03-14T13:19:22;98665.47;;;7.00;100.00
66021;BME280;52789;59.980;30.346;2023-03-14T13:21:49;98669.53;;;7.02;100.00
66021;BME280;52789;59.980;30.346;2023-03-14T13:24:20;98665.06;;;7.03;100.00
66021;BME280;52789;59.980;30.346;2023-03-14T13:26:46;98677.72;;;7.07;100.00
66021;BME280;52789;59.980;30.346;2023-03-14T13:29:27;98665.50;;;7.06;100.00
66021;BME280;52789;59.980;30.346;2023-03-14T13:31:54;98683.78;;;7.01;100.00
66021;BME280;52789;59.980;30.346;2023-03-14T13:34:24;98690.66;;;6.96;100.00
66021;BME280;52789;59.980;30.346;2023-03-14T13:36:59;98687.94;;;6.89;100.00
66021;BME280;52789;59.980;30.346;2023-03-14T13:39:25;98693.38;;;6.81;100.00
66021;BME280;52789;59.980;30.346;2023-03-14T13:41:52;98696.56;;;6.76;100.00
66021;BME280;52789;59.980;30.346;2023-03-14T13:44:31;98692.50;;;6.74;100.00
66021;BME280;52789;59.980;30.346;2023-03-14T13:47:00;98701.00;;;6.69;100.00
66021;BME280;52789;59.980;30.346;2023-03-14T13:49:26;98703.63;;;6.69;100.00
66021;BME280;52789;59.980;30.346;2023-03-14T13:51:56;98698.88;;;6.65;100.00
66021;BME280;52789;59.980;30.346;2023-03-14T13:54:26;98717.97;;;6.60;100.00
66021;BME280;52789;59.980;30.346;2023-03-14T13:56:59;98712.88;;;6.59;100.00
66021;BME280;52789;59.980;30.346;2023-03-14T13:59:34;98715.69;;;6.57;100.00
66021;BME280;52789;59.980;30.346;2023-03-14T14:02:00;98711.59;;;6.55;100.00
66021;BME280;52789;59.980;30.346;2023-03-14T14:04:28;98719.72;;;6.53;100.00
66021;BME280;52789;59.980;30.346;2023-03-14T14:07:00;98718.66;;;6.47;100.00